< Cyclone 199101 1991 Season Cyclone 199103 >
Cyclone 199102 (JOY)
General InformationTrack Information on Google MapsDetailed Wind InformationList of All Images || ResourceGoogle EarthGE AnimationAtom FeedGeoJSON
Detalied Best Track (Time Zone = UTC)
Year Month Day Hour Lat. Long. Pressure (hPa) Wind (kt) Class Image Chart
1990 12 18 00 -11.4 158.0 998 35 3 Image --
1990 12 18 06 -12.0 157.2 998 35 3 Image --
1990 12 18 12 -12.6 156.3 995 35 3 Image --
1990 12 18 18 -13.0 155.1 995 35 3 Image --
1990 12 19 00 -12.2 153.3 990 35 3 Image --
1990 12 19 06 -12.2 152.7 985 41 3 Image --
1990 12 19 12 -12.4 152.5 985 41 3 Image --
1990 12 19 18 -12.4 151.6 985 41 3 Image --
1990 12 20 00 -12.4 151.0 970 51 4 Image --
1990 12 20 06 -12.5 150.6 970 60 4 Image --
1990 12 20 12 -12.7 150.1 970 60 4 Image --
1990 12 20 18 -12.9 149.6 970 60 4 Image --
1990 12 21 00 -13.2 149.1 970 60 4 Image --
1990 12 21 06 -13.7 148.8 970 66 5 Image --
1990 12 21 12 -14.2 148.4 965 70 5 Image --
1990 12 21 18 -14.5 148.1 965 70 5 Image --
1990 12 22 00 -14.9 147.6 960 76 5 Image --
1990 12 22 06 -15.1 147.4 955 80 5 Image --
1990 12 22 12 -15.4 147.2 950 86 5 Image --
1990 12 22 18 -15.9 146.9 945 86 5 Image --
1990 12 23 00 -15.9 146.7 940 89 5 Image --
1990 12 23 06 -16.2 146.7 940 89 5 Image --
1990 12 23 12 -16.1 146.6 940 89 5 Image --
1990 12 23 18 -16.2 146.8 940 89 5 Image --
1990 12 24 00 -16.6 146.7 950 86 5 Image --
1990 12 24 06 -16.6 146.9 950 86 5 Image --
1990 12 24 12 -16.6 147.2 955 76 5 Image --
1990 12 24 18 -16.8 147.2 970 66 5 Image --
1990 12 25 00 -16.9 147.5 975 54 4 Image --
1990 12 25 06 -17.1 147.8 980 54 4 Image --
1990 12 25 12 -17.2 147.9 980 54 4 Image --
1990 12 25 18 -17.7 147.9 980 54 4 Image --
1990 12 26 00 -18.2 147.9 980 51 4 Image --
1990 12 26 06 -19.2 147.6 983 46 0 Image --
1990 12 26 12 -19.1 147.1 990 41 3 Image --
1990 12 26 18 -19.2 146.6 992 41 3 Image --
1990 12 27 01 -19.9 146.7 999 33 2 Image --
< Cyclone 199101 1991 Season Cyclone 199103 >

Help